Date,TemperatureHighF,TemperatureAvgF,TemperatureLowF,DewpointHighF,DewpointAvgF,DewpointLowF,HumidityHigh,HumidityAvg,HumidityLow,PressureMaxIn,PressureMinIn,WindSpeedMaxMPH,WindSpeedAvgMPH,GustSpeedMaxMPH,PrecipitationSumIn
2013-3-1,35,32,31,35,32,31,99,98,98,29.55,29.44,17,9,26,0.03
2013-3-2,35,-6,-39,34,-28,-100,100,62,94,29.54,29.49,15,9,22,0.03
2013-3-3,40,36,-38,39,32,-100,99,93,89,29.52,29.40,10,5,16,0.02
2013-3-4,36,34,32,35,33,31,99,96,92,29.57,29.36,15,10,23,0.10
2013-3-5,43,37,34,40,35,33,100,93,80,30.07,29.57,18,11,28,0.06
2013-3-6,36,35,33,35,31,28,96,88,73,30.24,30.08,20,13,32,0.03
2013-3-7,38,35,33,29,28,26,79,75,69,30.19,30.03,23,17,38,0.01
2013-3-8,47,37,31,28,26,22,83,66,38,30.14,29.98,23,16,35,0.00
2013-3-9,42,34,29,29,26,24,84,73,56,30.34,30.14,16,10,27,0.00
2013-3-10,35,32,29,32,28,25,88,83,78,30.39,30.25,10,4,18,0.00
2013-3-11,41,39,35,39,36,32,96,91,88,30.28,30.15,16,10,24,0.00
2013-3-12,45,43,40,44,41,39,98,96,93,30.16,29.85,21,14,31,0.14
2013-3-13,47,43,38,47,43,34,100,99,89,29.83,29.55,27,13,36,1.48
2013-3-14,41,37,29,34,30,22,92,77,62,29.63,29.54,16,10,29,0.01
2013-3-15,33,28,21,22,16,12,87,64,43,29.67,29.54,23,13,35,0.00
2013-3-16,33,30,24,21,15,12,72,55,43,29.81,29.54,14,6,20,0.00
2013-3-17,30,25,19,14,9,-1,68,50,34,30.22,29.81,24,13,39,0.00
2013-3-18,32,24,16,10,4,-1,55,41,29,30.37,30.22,19,9,32,0.00
2013-3-19,32,28,26,27,22,5,97,79,34,30.27,29.59,23,13,37,0.01
2013-3-20,34,28,20,28,24,18,97,85,68,29.63,29.45,24,16,35,0.01
2013-3-21,38,34,31,30,26,23,91,75,56,29.72,29.53,23,8,32,0.00
2013-3-22,40,33,27,30,24,19,93,69,45,29.53,29.47,18,10,29,0.00
2013-3-23,40,34,29,29,25,21,77,67,55,29.52,29.34,24,17,33,0.00
2013-3-24,44,38,34,30,28,26,78,67,54,29.69,29.48,20,10,30,0.00
2013-3-25,40,36,30,35,32,27,92,83,70,29.70,29.53,13,6,24,0.00
2013-3-26,47,38,30,34,28,24,85,68,47,29.61,29.46,17,10,26,0.00
2013-3-27,40,37,34,39,35,31,96,92,81,29.77,29.59,13,8,0,0.00
2013-3-28,47,40,35,37,35,33,94,81,61,29.87,29.76,13,6,0,0.00
2013-3-29,51,44,38,40,36,33,88,76,61,29.91,29.85,12,7,0,0.00
2013-3-30,47,41,35,39,34,30,85,77,59,30.00,29.91,11,7,0,0.00
2013-3-31,45,40,34,39,30,-100,94,70,37,30.07,29.87,17,6,0,0.00